Time;durP1;ratioP1;P1;durP2;ratioP2;P2;SDS_P1;SDS_P2;PMS_P1;PMS_P2;Temp;Humidity;BMP_temperature;BMP_pressure;BME280_temperature;BME280_humidity;BME280_pressure;Samples;Min_cycle;Max_cycle;Signal;HPM_P1;HPM_P2
2023/06/13 00:02:04;;;;;;;6.03;4.95;;;;;;;22.94;35.39;99589.69;4928789;28;20118;-87
2023/06/13 00:04:33;;;;;;;5.97;5.03;;;;;;;22.92;35.38;99597.25;4902100;28;20491;-87
2023/06/13 00:07:00;;;;;;;8.43;4.80;;;;;;;22.90;35.30;99593.09;4907885;28;20703;-87
2023/06/13 00:09:28;;;;;;;6.22;4.65;;;;;;;22.81;35.64;99586.31;4885847;28;20098;-87
2023/06/13 00:11:56;;;;;;;6.07;4.50;;;;;;;22.84;35.45;99594.78;4888369;28;20048;-87
2023/06/13 00:14:24;;;;;;;4.78;4.25;;;;;;;22.80;35.46;99587.38;4925051;28;20058;-87
2023/06/13 00:16:51;;;;;;;5.40;4.63;;;;;;;22.80;35.27;99590.06;4903728;28;20055;-87
2023/06/13 00:19:31;;;;;;;7.43;4.50;;;;;;;22.81;35.64;99594.41;4921693;28;20063;-87
2023/06/13 00:21:59;;;;;;;6.85;4.43;;;;;;;22.86;35.44;99589.16;4897002;28;20046;-87
2023/06/13 00:24:26;;;;;;;8.20;4.80;;;;;;;22.59;35.35;99592.09;4907492;28;20512;-86
2023/06/13 00:26:55;;;;;;;7.20;4.90;;;;;;;22.57;35.48;99583.38;4915065;28;20676;-88
2023/06/13 00:29:22;;;;;;;5.97;4.63;;;;;;;22.57;35.49;99577.97;4891806;28;20051;-87
2023/06/13 00:31:49;;;;;;;5.57;4.35;;;;;;;22.62;35.40;99590.81;4912288;28;20059;-87
2023/06/13 00:34:16;;;;;;;7.00;4.10;;;;;;;22.48;35.40;99590.09;4906359;28;20670;-86
2023/06/13 00:36:55;;;;;;;5.18;4.32;;;;;;;22.43;35.43;99582.63;4924592;28;20043;-86
2023/06/13 00:39:29;;;;;;;4.80;4.03;;;;;;;22.56;35.42;99579.00;4924062;28;20041;-87
2023/06/13 00:42:00;;;;;;;4.32;3.67;;;;;;;22.58;35.21;99584.19;4907304;28;20106;-87
2023/06/13 00:44:47;;;;;;;6.15;3.97;;;;;;;22.61;35.56;99583.75;4915701;28;20050;-85
2023/06/13 00:47:26;;;;;;;7.25;4.38;;;;;;;22.63;35.80;99582.47;4914118;28;20058;-86
2023/06/13 00:50:08;;;;;;;10.63;4.70;;;;;;;22.56;35.51;99581.69;4902852;28;20067;-86
2023/06/13 00:52:47;;;;;;;6.40;4.18;;;;;;;22.57;35.83;99577.97;4946362;28;20131;-87
2023/06/13 00:55:22;;;;;;;7.43;4.07;;;;;;;22.57;35.95;99579.81;4909409;28;20670;-87
2023/06/13 00:57:51;;;;;;;6.90;4.20;;;;;;;22.57;36.00;99577.97;4922002;28;20129;-86
2023/06/13 01:00:22;;;;;;;4.78;3.92;;;;;;;22.62;35.34;99577.28;4863872;28;20561;-87
2023/06/13 01:03:15;;;;;;;6.97;4.25;;;;;;;22.52;35.30;99581.31;4912134;28;20128;-86
2023/06/13 01:05:57;;;;;;;4.65;3.85;;;;;;;22.50;36.18;99571.78;4921852;28;20050;-88
2023/06/13 01:08:57;;;;;;;5.25;3.80;;;;;;;22.46;35.20;99575.94;4843578;28;20460;-87
2023/06/13 01:11:41;;;;;;;4.78;4.25;;;;;;;22.37;35.32;99578.09;4899054;28;20482;-86
2023/06/13 01:14:30;;;;;;;4.43;3.97;;;;;;;22.43;35.33;99579.09;4934706;28;20058;-86
2023/06/13 01:17:28;;;;;;;7.07;3.70;;;;;;;22.30;36.20;99569.22;4922215;28;20053;-87
2023/06/13 01:20:10;;;;;;;4.50;3.97;;;;;;;22.41;35.41;99567.66;4909789;28;20047;-87
2023/06/13 01:22:42;;;;;;;;;;;;;;;22.13;35.54;99568.84;4920053;28;20051;-86
2023/06/13 01:25:37;;;;;;;6.83;4.20;;;;;;;22.28;35.27;99563.19;4866772;28;20133;-87
2023/06/13 01:28:15;;;;;;;5.90;3.65;;;;;;;22.41;35.56;99564.97;4890257;28;20454;-87
2023/06/13 01:30:59;;;;;;;5.05;3.90;;;;;;;22.33;35.45;99563.34;4887677;28;20514;-86
2023/06/13 01:33:32;;;;;;;6.13;4.07;;;;;;;22.32;35.71;99567.94;4884639;28;20100;-86
2023/06/13 01:36:06;;;;;;;6.65;4.25;;;;;;;22.31;35.90;99568.16;4925643;28;20494;-86
2023/06/13 01:38:44;;;;;;;7.03;3.80;;;;;;;22.31;35.63;99551.91;4894308;28;20055;-87
2023/06/13 01:41:29;;;;;;;5.07;4.38;;;;;;;22.25;36.57;99561.75;4883324;28;20043;-86
2023/06/13 01:44:08;;;;;;;8.35;4.07;;;;;;;22.10;37.00;99556.59;4905444;28;20043;-87
2023/06/13 01:47:07;;;;;;;5.82;4.07;;;;;;;21.98;37.85;99552.97;4895147;28;20522;-87
2023/06/13 01:50:01;;;;;;;4.70;3.53;;;;;;;22.02;37.36;99558.75;4887725;28;20058;-86
2023/06/13 01:52:40;;;;;;;5.13;3.60;;;;;;;21.88;37.68;99560.72;4887749;28;20061;-87
2023/06/13 01:55:25;;;;;;;5.28;4.15;;;;;;;21.85;37.97;99561.13;4911962;28;20058;-87
2023/06/13 01:58:06;;;;;;;6.88;3.67;;;;;;;21.97;37.12;99563.97;4889450;28;20050;-86
2023/06/13 02:00:55;;;;;;;6.07;4.15;;;;;;;21.89;37.68;99556.94;4923755;28;20043;-87
2023/06/13 02:03:28;;;;;;;6.15;3.92;;;;;;;21.83;38.12;99563.19;4883708;28;20067;-87
2023/06/13 02:06:08;;;;;;;8.25;4.15;;;;;;;21.83;38.42;99564.06;4903323;28;20577;-86
2023/06/13 02:08:46;;;;;;;4.22;3.58;;;;;;;21.74;38.42;99568.03;4898167;28;20043;-87
2023/06/13 02:11:22;;;;;;;4.70;3.75;;;;;;;21.82;37.50;99567.78;4880166;28;20523;-86
2023/06/13 02:14:20;;;;;;;5.60;4.00;;;;;;;21.81;37.87;99555.31;4882510;28;20046;-86
2023/06/13 02:17:01;;;;;;;8.00;4.10;;;;;;;21.72;38.64;99570.13;4882277;28;20040;-86
2023/06/13 02:19:30;;;;;;;7.53;4.10;;;;;;;21.84;37.09;99560.28;4920883;28;20050;-86
2023/06/13 02:21:57;;;;;;;5.25;4.38;;;;;;;21.87;37.16;99564.44;4915634;28;20646;-87
2023/06/13 02:24:24;;;;;;;6.43;4.03;;;;;;;21.94;37.08;99569.81;4916681;28;20075;-86
2023/06/13 02:26:52;;;;;;;6.40;3.92;;;;;;;21.91;37.38;99567.56;4913387;28;20095;-86
2023/06/13 02:29:24;;;;;;;7.35;3.88;;;;;;;21.94;37.07;99561.72;4913193;28;20070;-87
2023/06/13 02:31:54;;;;;;;7.00;3.83;;;;;;;21.84;38.56;99564.88;4936261;28;20039;-86
2023/06/13 02:34:21;;;;;;;5.18;3.97;;;;;;;21.76;38.58;99563.25;4921724;28;20043;-86
2023/06/13 02:36:48;;;;;;;6.55;3.88;;;;;;;21.72;38.71;99555.78;4916917;28;20046;-86
2023/06/13 02:39:17;;;;;;;10.70;4.30;;;;;;;21.69;37.73;99559.75;4917608;28;20055;-86
2023/06/13 02:41:44;;;;;;;7.70;4.20;;;;;;;21.66;37.55;99562.88;4930585;28;20498;-87
2023/06/13 02:44:13;;;;;;;6.72;3.95;;;;;;;21.68;37.23;99558.91;4941639;28;20406;-86
2023/06/13 02:46:42;;;;;;;7.28;3.88;;;;;;;21.56;37.33;99563.34;4880210;28;20075;-91
2023/06/13 02:49:09;;;;;;;7.10;4.15;;;;;;;21.62;37.18;99567.88;4942795;28;20070;-87
2023/06/13 02:51:48;;;;;;;6.85;3.85;;;;;;;21.58;37.41;99563.97;4923005;28;20050;-88
2023/06/13 02:54:28;;;;;;;5.25;4.32;;;;;;;21.56;37.33;99557.94;4899214;28;20050;-87
2023/06/13 02:56:55;;;;;;;4.85;3.95;;;;;;;21.54;37.37;99562.72;4865347;28;20166;-87
2023/06/13 02:59:26;;;;;;;7.50;3.65;;;;;;;21.40;37.61;99553.03;4930893;28;20055;-86
2023/06/13 03:01:56;;;;;;;5.05;4.10;;;;;;;21.41;37.52;99554.66;4885859;28;20465;-86
2023/06/13 03:04:28;;;;;;;7.03;4.55;;;;;;;21.35;37.60;99548.22;4911136;28;20044;-88
2023/06/13 03:06:57;;;;;;;7.18;4.25;;;;;;;21.14;37.96;99553.88;4937355;28;20062;-86
2023/06/13 03:09:24;;;;;;;6.97;4.10;;;;;;;20.94;38.31;99557.47;4920936;28;20051;-86
2023/06/13 03:11:51;;;;;;;6.10;4.35;;;;;;;20.94;38.14;99567.41;4922116;28;20134;-85
2023/06/13 03:14:22;;;;;;;7.30;4.10;;;;;;;20.99;38.12;99564.94;4925907;28;20055;-87
2023/06/13 03:16:52;;;;;;;6.68;4.13;;;;;;;20.78;38.57;99561.41;4901640;28;20426;-87
2023/06/13 03:19:19;;;;;;;8.00;4.95;;;;;;;20.67;39.04;99559.34;4912557;28;20052;-87
2023/06/13 03:21:46;;;;;;;5.72;4.00;;;;;;;20.58;38.86;99561.44;4922484;28;20051;-87
2023/06/13 03:24:14;;;;;;;4.95;4.18;;;;;;;20.64;38.69;99557.06;4905788;28;20074;-86
2023/06/13 03:26:41;;;;;;;11.90;4.50;;;;;;;20.56;39.17;99566.19;4913845;28;20055;-87
2023/06/13 03:29:11;;;;;;;7.00;4.20;;;;;;;20.64;38.83;99558.94;4889459;28;20114;-86
2023/06/13 03:31:39;;;;;;;5.70;4.20;;;;;;;20.60;38.93;99566.59;4911553;28;20083;-86
2023/06/13 03:34:06;;;;;;;8.52;4.68;;;;;;;20.59;39.15;99575.75;4935969;28;20047;-87
2023/06/13 03:36:34;;;;;;;6.65;4.47;;;;;;;20.66;38.78;99573.03;4896654;28;20054;-86
2023/06/13 03:39:01;;;;;;;7.25;4.47;;;;;;;20.75;39.09;99575.31;4934150;28;20051;-86
2023/06/13 03:41:28;;;;;;;6.28;4.13;;;;;;;20.79;39.03;99570.34;4928269;28;20053;-86
2023/06/13 03:43:55;;;;;;;8.10;4.78;;;;;;;20.91;38.90;99578.63;4909314;28;20051;-87
2023/06/13 03:46:24;;;;;;;8.48;4.35;;;;;;;21.00;39.01;99572.81;4934830;28;20050;-87
2023/06/13 03:48:53;;;;;;;5.93;4.40;;;;;;;21.17;38.60;99585.88;4919434;28;20043;-87
2023/06/13 03:51:21;;;;;;;6.40;4.45;;;;;;;21.24;38.92;99581.25;4908732;28;20141;-87
2023/06/13 03:53:48;;;;;;;7.50;3.90;;;;;;;21.48;39.27;99573.56;4931991;28;20117;-88
2023/06/13 03:56:15;;;;;;;7.68;4.68;;;;;;;21.76;39.70;99575.94;4914188;28;20525;-87
2023/06/13 03:58:42;;;;;;;7.75;4.65;;;;;;;22.44;38.94;99586.16;4934349;28;20055;-86
2023/06/13 04:01:11;;;;;;;7.00;4.20;;;;;;;23.35;37.47;99592.88;4924142;28;20134;-86
2023/06/13 04:03:39;;;;;;;7.45;4.70;;;;;;;24.10;35.71;99584.47;4919602;28;20108;-88
2023/06/13 04:06:07;;;;;;;5.97;4.68;;;;;;;24.55;34.32;99589.47;4896453;28;20051;-87
2023/06/13 04:08:36;;;;;;;7.30;4.88;;;;;;;24.30;33.97;99583.34;4926236;28;20047;-87
2023/06/13 04:11:05;;;;;;;8.60;4.78;;;;;;;24.05;34.31;99587.88;4942396;28;20050;-87
2023/06/13 04:13:32;;;;;;;5.85;4.60;;;;;;;23.72;35.00;99593.72;4937673;28;20047;-87
2023/06/13 04:16:00;;;;;;;4.85;4.35;;;;;;;23.64;34.96;99585.06;4939803;28;20047;-87
2023/06/13 04:18:28;;;;;;;6.10;4.68;;;;;;;23.43;35.42;99592.56;4911683;28;20047;-87
2023/06/13 04:20:57;;;;;;;4.90;4.30;;;;;;;23.20;35.58;99590.53;4965016;28;20047;-87
2023/06/13 04:23:27;;;;;;;6.78;4.70;;;;;;;23.18;36.25;99598.91;4926813;28;20100;-87
2023/06/13 04:25:55;;;;;;;11.05;5.18;;;;;;;23.21;35.89;99600.31;4941903;28;20051;-87
2023/06/13 04:28:25;;;;;;;7.72;4.70;;;;;;;23.19;36.23;99599.72;4898008;28;20043;-88
2023/06/13 04:31:00;;;;;;;7.22;5.32;;;;;;;23.22;35.91;99614.69;4915968;28;20047;-87
2023/06/13 04:33:27;;;;;;;7.10;5.35;;;;;;;23.10;36.47;99603.75;4948895;28;20102;-88
2023/06/13 04:35:54;;;;;;;5.78;4.63;;;;;;;23.12;36.21;99613.31;4961783;28;20047;-90
2023/06/13 04:38:21;;;;;;;5.90;4.70;;;;;;;23.09;36.23;99621.06;4951616;28;20126;-87
2023/06/13 04:40:48;;;;;;;6.80;4.57;;;;;;;22.96;36.07;99619.28;4944620;28;20138;-87
2023/06/13 04:43:16;;;;;;;9.55;5.53;;;;;;;22.90;36.47;99609.34;4954286;28;20059;-88
2023/06/13 04:45:46;;;;;;;5.28;4.78;;;;;;;22.75;36.53;99610.50;4922380;28;20043;-88
2023/06/13 04:48:16;;;;;;;9.05;4.65;;;;;;;22.87;36.73;99609.75;4926552;28;20058;-89
2023/06/13 04:50:44;;;;;;;8.10;5.38;;;;;;;22.82;36.63;99610.44;4914596;28;20742;-87
2023/06/13 04:53:16;;;;;;;6.50;4.95;;;;;;;22.67;36.97;99607.22;4909047;28;20035;-86
2023/06/13 04:55:47;;;;;;;6.43;4.68;;;;;;;22.63;36.89;99614.13;4941331;28;20155;-87
2023/06/13 04:58:15;;;;;;;7.68;5.20;;;;;;;22.54;37.04;99618.97;4927060;28;20098;-88
2023/06/13 05:00:48;;;;;;;7.45;5.18;;;;;;;22.35;37.44;99619.97;4924058;28;20053;-88
2023/06/13 05:03:18;;;;;;;;;;;;;;;21.84;38.92;99627.88;4948132;28;20055;-89
2023/06/13 05:05:53;;;;;;;6.57;5.22;;;;;;;22.15;38.03;99638.97;4916237;28;19925;-87
2023/06/13 05:08:21;;;;;;;8.13;4.88;;;;;;;22.05;37.66;99618.63;4940455;28;20051;-87
2023/06/13 05:10:51;;;;;;;11.38;5.38;;;;;;;22.02;37.87;99629.03;4901632;28;20134;-88
2023/06/13 05:13:18;;;;;;;12.85;4.97;;;;;;;21.98;37.77;99641.31;4901860;28;20082;-88
2023/06/13 05:15:46;;;;;;;6.55;5.18;;;;;;;21.92;38.14;99643.00;4926790;28;20051;-87
2023/06/13 05:18:17;;;;;;;7.45;5.28;;;;;;;21.86;38.10;99635.78;4904377;28;20055;-88
2023/06/13 05:20:58;;;;;;;6.53;4.88;;;;;;;21.82;38.38;99629.13;4926013;28;20047;-87
2023/06/13 05:23:26;;;;;;;9.30;4.75;;;;;;;21.79;38.52;99637.66;4930595;28;20043;-87
2023/06/13 05:25:56;;;;;;;5.30;4.60;;;;;;;21.75;38.50;99636.44;4921613;28;20137;-86
2023/06/13 05:28:25;;;;;;;9.07;4.65;;;;;;;21.79;39.04;99646.59;4940944;28;20044;-87
2023/06/13 05:30:52;;;;;;;6.28;4.93;;;;;;;21.74;38.96;99638.31;4909399;28;20051;-87
2023/06/13 05:33:19;;;;;;;9.50;5.20;;;;;;;21.82;38.77;99643.47;4943239;28;20051;-86
2023/06/13 05:35:46;;;;;;;8.70;5.15;;;;;;;21.79;38.96;99643.06;4951090;28;20054;-87
2023/06/13 05:38:24;;;;;;;6.30;4.90;;;;;;;21.78;39.00;99642.25;4937814;28;20051;-87
2023/06/13 05:40:54;;;;;;;7.20;5.40;;;;;;;21.84;39.51;99643.25;4932896;28;20049;-87
2023/06/13 05:43:21;;;;;;;7.57;5.10;;;;;;;21.84;39.44;99644.09;4950222;28;20097;-87
2023/06/13 05:45:48;;;;;;;6.05;4.60;;;;;;;21.84;39.28;99643.25;4940212;28;20536;-88
2023/06/13 05:48:16;;;;;;;8.02;4.40;;;;;;;21.92;39.35;99648.41;4914262;28;20059;-88
2023/06/13 05:50:42;;;;;;;7.38;4.65;;;;;;;21.92;39.41;99643.00;4961089;28;20047;-87
2023/06/13 05:53:10;;;;;;;9.70;4.93;;;;;;;21.96;38.96;99643.44;4912155;28;20046;-87
2023/06/13 05:55:38;;;;;;;7.40;4.45;;;;;;;21.94;39.02;99640.94;4923220;28;20070;-87
2023/06/13 05:58:08;;;;;;;5.32;4.28;;;;;;;21.94;39.04;99637.41;4911561;28;20661;-87
2023/06/13 06:00:40;;;;;;;6.95;4.47;;;;;;;21.91;39.09;99640.53;4951568;28;20055;-87
2023/06/13 06:03:08;;;;;;;6.55;4.57;;;;;;;21.88;39.18;99641.81;4904678;28;20094;-87
2023/06/13 06:05:35;;;;;;;7.20;4.38;;;;;;;21.91;39.14;99635.13;4916254;28;20050;-87
2023/06/13 06:08:02;;;;;;;5.55;4.03;;;;;;;22.00;39.43;99637.34;4922409;28;20134;-87
2023/06/13 06:10:48;;;;;;;6.50;4.57;;;;;;;21.91;39.41;99637.84;4899353;28;20047;-86
2023/06/13 06:13:31;;;;;;;6.20;4.20;;;;;;;22.05;39.18;99642.94;4921320;28;20055;-88
2023/06/13 06:21:10;;;;;;;5.72;3.92;;;;;;;21.89;38.58;99640.75;4866157;28;20125;-88
2023/06/13 06:29:31;;;;;;;5.70;3.83;;;;;;;22.09;38.92;99641.50;4895643;28;20191;-80
2023/06/13 06:31:58;;;;;;;6.55;3.53;;;;;;;22.18;38.36;99646.63;4920447;28;20067;-81
2023/06/13 06:34:24;;;;;;;6.70;3.97;;;;;;;22.29;38.50;99627.91;4907413;28;20071;-80
2023/06/13 06:36:51;;;;;;;9.10;4.63;;;;;;;22.35;38.41;99636.19;4932915;28;20055;-80
2023/06/13 06:39:19;;;;;;;7.22;3.90;;;;;;;22.39;38.24;99642.81;4916907;28;20048;-81
2023/06/13 06:41:46;;;;;;;7.85;3.63;;;;;;;22.43;37.79;99636.75;4913271;28;20044;-81
2023/06/13 06:44:18;;;;;;;4.53;3.90;;;;;;;22.45;37.97;99637.34;4918086;28;20051;-81
2023/06/13 06:46:54;;;;;;;4.00;3.42;;;;;;;22.44;37.91;99637.56;4942074;28;20044;-81
2023/06/13 06:49:22;;;;;;;6.30;3.22;;;;;;;22.39;37.49;99637.38;4916413;28;20759;-80
2023/06/13 06:51:48;;;;;;;5.85;3.67;;;;;;;22.46;37.87;99643.59;4901657;28;20054;-81
2023/06/13 06:54:15;;;;;;;7.53;3.55;;;;;;;22.48;37.28;99638.81;4916815;28;20475;-80
2023/06/13 06:56:42;;;;;;;4.53;3.55;;;;;;;22.50;37.38;99644.84;4928329;28;20119;-81
2023/06/13 06:59:09;;;;;;;6.38;3.80;;;;;;;22.52;37.65;99642.75;4930882;28;20122;-81
2023/06/13 07:01:35;;;;;;;7.35;3.83;;;;;;;22.59;37.90;99637.25;4929557;28;20556;-80
2023/06/13 07:04:02;;;;;;;4.55;3.50;;;;;;;22.64;37.53;99650.97;4914394;28;20051;-80
2023/06/13 07:06:30;;;;;;;6.38;3.67;;;;;;;22.64;37.14;99638.25;4943118;28;20047;-81
2023/06/13 07:08:57;;;;;;;6.93;3.38;;;;;;;22.67;37.04;99637.84;4920172;28;20471;-81
2023/06/13 07:11:24;;;;;;;5.20;3.80;;;;;;;22.70;37.08;99637.41;4941923;28;20102;-80
2023/06/13 07:13:51;;;;;;;6.07;3.85;;;;;;;22.74;37.23;99643.19;4923876;28;20043;-81
2023/06/13 07:16:18;;;;;;;5.57;3.67;;;;;;;22.77;36.89;99634.66;4927434;28;20059;-81
2023/06/13 07:18:45;;;;;;;6.10;4.20;;;;;;;22.74;36.76;99633.22;4930748;28;20044;-79
2023/06/13 07:21:12;;;;;;;4.65;3.78;;;;;;;22.78;36.69;99630.06;4937780;28;20150;-81
2023/06/13 07:23:39;;;;;;;4.68;3.60;;;;;;;22.78;36.81;99635.47;4931821;28;20040;-81
2023/06/13 07:26:22;;;;;;;5.55;3.80;;;;;;;22.79;36.66;99632.53;4908599;28;20511;-81
2023/06/13 07:28:49;;;;;;;4.90;3.63;;;;;;;22.73;36.67;99636.13;4902188;28;20135;-81
2023/06/13 07:31:16;;;;;;;4.68;3.95;;;;;;;22.70;36.38;99642.00;4943691;28;20051;-82
2023/06/13 07:33:43;;;;;;;5.50;3.65;;;;;;;22.69;36.12;99641.13;4941065;28;20098;-81
2023/06/13 07:36:10;;;;;;;7.90;3.70;;;;;;;22.72;36.09;99634.47;4926635;28;20052;-81
2023/06/13 07:38:37;;;;;;;7.15;3.90;;;;;;;22.76;35.90;99622.16;4909589;28;20071;-81
2023/06/13 07:41:05;;;;;;;5.13;3.63;;;;;;;22.80;36.14;99620.66;4917100;28;20075;-82
2023/06/13 07:43:31;;;;;;;3.55;3.13;;;;;;;22.89;35.94;99618.50;4905952;28;20561;-82
2023/06/13 07:45:58;;;;;;;5.72;3.15;;;;;;;22.84;35.29;99608.31;4902688;28;20079;-82
2023/06/13 07:48:25;;;;;;;4.55;4.03;;;;;;;22.86;35.67;99624.38;4900846;28;20126;-81
2023/06/13 07:50:52;;;;;;;4.55;3.40;;;;;;;22.92;35.74;99631.59;4899272;28;20042;-81
2023/06/13 07:53:19;;;;;;;7.47;3.80;;;;;;;22.95;34.88;99626.59;4913205;28;20102;-81
2023/06/13 07:55:47;;;;;;;3.78;3.10;;;;;;;22.98;34.90;99613.69;4913320;28;20116;-83
2023/06/13 07:58:14;;;;;;;6.93;3.22;;;;;;;22.96;34.84;99611.16;4913879;28;20074;-81
2023/06/13 08:00:41;;;;;;;4.13;3.40;;;;;;;22.96;34.63;99605.75;4914654;28;20058;-82
2023/06/13 08:03:07;;;;;;;6.65;4.13;;;;;;;23.00;35.10;99593.47;4903797;28;20520;-81
2023/06/13 08:05:34;;;;;;;6.22;3.42;;;;;;;22.96;34.40;99600.31;4890313;28;20048;-81
2023/06/13 08:08:02;;;;;;;5.50;3.83;;;;;;;22.98;34.50;99605.56;4898655;28;20091;-81
2023/06/13 08:10:29;;;;;;;6.03;3.60;;;;;;;22.88;33.83;99616.84;4898947;28;20048;-83
2023/06/13 08:12:56;;;;;;;7.30;3.38;;;;;;;22.92;34.10;99602.66;4911483;28;20048;-83
2023/06/13 08:15:23;;;;;;;7.18;3.53;;;;;;;22.95;34.29;99599.50;4896778;28;20135;-84
2023/06/13 08:17:52;;;;;;;4.75;3.55;;;;;;;22.99;33.67;99597.19;4911499;28;20127;-84
2023/06/13 08:20:19;;;;;;;6.78;3.72;;;;;;;22.81;34.34;99595.25;4887266;28;20046;-83
2023/06/13 08:22:46;;;;;;;8.35;3.97;;;;;;;22.86;34.04;99595.41;4886834;28;20059;-84
2023/06/13 08:25:12;;;;;;;5.85;3.53;;;;;;;22.81;34.12;99597.13;4894844;28;20056;-83
2023/06/13 08:27:40;;;;;;;6.93;3.67;;;;;;;22.82;33.99;99601.47;4907144;28;20049;-83
2023/06/13 08:30:07;;;;;;;7.78;4.00;;;;;;;22.88;33.98;99595.19;4917853;28;20062;-84
2023/06/13 08:32:35;;;;;;;5.88;3.88;;;;;;;22.85;34.16;99580.22;4890022;28;20094;-84
2023/06/13 08:35:03;;;;;;;8.98;3.45;;;;;;;22.85;34.92;99582.13;4901973;28;20441;-83
2023/06/13 08:37:31;;;;;;;17.40;4.43;;;;;;;22.81;34.41;99594.41;4899906;28;20048;-83
2023/06/13 08:39:58;;;;;;;3.75;3.38;;;;;;;22.65;33.94;99585.81;4898399;28;20071;-84
2023/06/13 08:42:25;;;;;;;7.18;4.43;;;;;;;22.76;34.52;99601.31;4900083;28;20040;-83
2023/06/13 08:44:52;;;;;;;4.70;3.33;;;;;;;22.80;34.00;99598.19;4888719;28;20067;-83
2023/06/13 08:47:19;;;;;;;6.32;3.60;;;;;;;22.81;33.39;99581.72;4909803;28;20048;-84
2023/06/13 08:50:03;;;;;;;8.50;3.50;;;;;;;22.85;33.60;99582.13;4892189;28;20066;-84
2023/06/13 08:52:37;;;;;;;5.28;3.33;;;;;;;22.84;33.59;99602.91;4904160;28;20051;-84
2023/06/13 08:55:07;;;;;;;5.65;3.75;;;;;;;22.93;33.62;99577.22;4901413;28;20051;-84
2023/06/13 08:57:54;;;;;;;6.97;3.78;;;;;;;22.96;33.84;99582.19;4899209;28;20074;-84
2023/06/13 09:00:24;;;;;;;9.38;3.97;;;;;;;23.00;33.79;99581.78;4887978;28;20504;-83
2023/06/13 09:02:52;;;;;;;6.93;3.65;;;;;;;22.99;33.93;99570.13;4916472;28;22589;-83
2023/06/13 09:05:19;;;;;;;7.97;3.78;;;;;;;22.99;34.03;99580.13;4885713;28;20407;-84
2023/06/13 09:07:46;;;;;;;5.95;3.55;;;;;;;23.07;33.94;99569.00;4887978;28;20044;-83
2023/06/13 09:10:13;;;;;;;6.55;3.53;;;;;;;23.13;34.13;99570.84;4961036;28;20136;-85
2023/06/13 09:12:42;;;;;;;5.03;3.67;;;;;;;23.18;33.82;99568.28;4885132;28;20044;-84
2023/06/13 09:15:10;;;;;;;7.22;3.78;;;;;;;23.21;33.85;99567.00;4915945;28;20055;-84
2023/06/13 09:17:37;;;;;;;7.53;4.40;;;;;;;23.24;33.44;99593.63;4912146;28;20048;-83
2023/06/13 09:20:07;;;;;;;7.63;3.88;;;;;;;23.12;32.79;99577.28;4894370;28;20558;-83
2023/06/13 09:22:37;;;;;;;5.25;3.55;;;;;;;23.02;33.89;99579.66;4896336;28;20058;-83
2023/06/13 09:25:06;;;;;;;5.22;4.00;;;;;;;23.07;33.48;99559.00;4901362;28;20075;-83
2023/06/13 09:27:33;;;;;;;6.55;3.53;;;;;;;23.08;34.15;99557.94;4911058;28;20499;-83
2023/06/13 09:30:00;;;;;;;7.85;3.70;;;;;;;23.09;33.88;99562.31;4911110;28;20048;-84
2023/06/13 09:32:28;;;;;;;4.50;3.88;;;;;;;23.12;34.32;99561.84;4895710;28;20139;-84
2023/06/13 09:34:55;;;;;;;6.22;3.70;;;;;;;23.06;34.06;99564.66;4909701;28;20047;-83
2023/06/13 09:37:24;;;;;;;5.18;3.83;;;;;;;23.05;34.14;99555.69;4888393;28;20142;-83
2023/06/13 09:39:52;;;;;;;8.85;3.58;;;;;;;23.02;34.05;99558.84;4874954;28;20048;-84
2023/06/13 09:42:35;;;;;;;5.35;4.05;;;;;;;23.10;34.20;99550.44;4924713;28;20047;-84
2023/06/13 09:45:08;;;;;;;6.25;3.78;;;;;;;23.13;34.00;99552.69;4897770;28;20097;-84
2023/06/13 09:47:35;;;;;;;4.65;3.22;;;;;;;23.13;34.08;99562.69;4902757;28;20050;-83
2023/06/13 09:50:02;;;;;;;5.68;3.90;;;;;;;23.12;33.31;99561.84;4891115;28;20559;-84
2023/06/13 09:52:32;;;;;;;4.80;3.22;;;;;;;23.13;33.65;99549.16;4897268;28;20052;-84
2023/06/13 09:54:59;;;;;;;6.47;4.13;;;;;;;23.19;33.90;99546.38;4896858;28;20396;-83
2023/06/13 09:57:25;;;;;;;9.57;4.80;;;;;;;23.17;34.03;99550.34;4916617;28;20059;-84
2023/06/13 10:00:13;;;;;;;9.63;4.10;;;;;;;23.19;33.71;99529.28;4899868;28;20055;-83
2023/06/13 10:02:43;;;;;;;7.93;3.97;;;;;;;23.19;33.75;99543.66;4900325;28;20523;-82
2023/06/13 10:05:12;;;;;;;10.07;4.07;;;;;;;23.11;34.37;99530.41;4910762;28;20273;-82
2023/06/13 10:07:39;;;;;;;7.75;3.85;;;;;;;23.18;34.48;99517.63;4898741;28;20099;-82
2023/06/13 10:10:07;;;;;;;5.50;3.75;;;;;;;23.23;34.17;99514.25;4899750;28;20500;-83
2023/06/13 10:12:38;;;;;;;5.18;3.83;;;;;;;23.10;33.82;99539.59;4900845;28;20052;-82
2023/06/13 10:15:06;;;;;;;8.43;3.67;;;;;;;23.18;34.09;99528.47;4923511;28;20396;-83
2023/06/13 10:17:36;;;;;;;8.35;3.95;;;;;;;23.22;33.73;99518.00;4914032;28;20048;-82
2023/06/13 10:20:10;;;;;;;6.55;3.78;;;;;;;23.29;33.72;99515.22;4904541;28;20125;-82
2023/06/13 10:22:38;;;;;;;6.53;3.60;;;;;;;23.30;33.58;99506.03;4886332;28;20138;-82
2023/06/13 10:25:11;;;;;;;4.85;4.10;;;;;;;23.26;33.33;99527.34;4899331;28;20041;-81
2023/06/13 10:27:41;;;;;;;5.65;3.58;;;;;;;23.15;32.33;99531.63;4908053;28;20384;-83
2023/06/13 10:30:16;;;;;;;9.35;4.07;;;;;;;23.15;32.39;99520.81;4913797;28;20062;-82
2023/06/13 10:32:55;;;;;;;7.57;4.43;;;;;;;23.15;32.43;99522.66;4911558;28;20518;-81
2023/06/13 10:35:44;;;;;;;8.07;3.70;;;;;;;23.07;31.97;99514.84;4905129;28;20052;-84
2023/06/13 10:38:45;;;;;;;4.45;3.85;;;;;;;23.12;31.64;99518.50;4888720;28;20048;-82
2023/06/13 10:41:34;;;;;;;5.80;3.72;;;;;;;23.13;31.18;99509.34;4923651;28;20044;-82
2023/06/13 10:44:25;;;;;;;8.10;3.63;;;;;;;23.25;31.37;99504.00;4900032;28;20051;-82
2023/06/13 10:46:52;;;;;;;8.07;4.20;;;;;;;23.30;31.84;99506.03;4918726;28;20044;-82
2023/06/13 10:49:19;;;;;;;3.50;3.13;;;;;;;23.38;32.07;99497.59;4917391;28;20041;-82
2023/06/13 10:51:46;;;;;;;5.90;3.90;;;;;;;23.47;32.12;99509.78;4914655;28;20044;-82
2023/06/13 10:54:14;;;;;;;5.57;3.72;;;;;;;23.46;31.62;99491.03;4898416;28;20044;-83
2023/06/13 10:56:43;;;;;;;6.22;3.97;;;;;;;23.56;31.96;99491.31;4906420;28;20430;-83
2023/06/13 10:59:13;;;;;;;8.48;4.15;;;;;;;23.59;31.78;99490.88;4892693;28;20407;-83
2023/06/13 11:01:40;;;;;;;6.22;4.07;;;;;;;23.59;31.34;99501.72;4915056;28;20118;-83
2023/06/13 11:04:12;;;;;;;6.38;4.30;;;;;;;23.59;30.83;99497.13;4901556;28;20056;-83
2023/06/13 11:06:42;;;;;;;5.10;3.75;;;;;;;23.56;31.17;99496.72;4904674;28;20495;-82
2023/06/13 11:09:24;;;;;;;9.05;4.15;;;;;;;23.46;30.91;99486.47;4893446;28;20059;-83
2023/06/13 11:11:53;;;;;;;4.70;3.60;;;;;;;23.54;31.12;99512.41;4911170;28;20968;-82
2023/06/13 11:14:36;;;;;;;5.18;4.07;;;;;;;23.52;30.56;99507.22;4886016;28;20044;-83
2023/06/13 11:17:03;;;;;;;3.67;3.35;;;;;;;23.64;31.03;99498.31;4898871;28;20094;-83
2023/06/13 11:19:33;;;;;;;4.78;3.80;;;;;;;23.69;31.03;99499.28;4895142;28;20167;-83
2023/06/13 11:22:02;;;;;;;5.32;3.55;;;;;;;23.73;31.11;99483.41;4903475;28;20135;-84
2023/06/13 11:24:31;;;;;;;5.53;4.07;;;;;;;23.78;31.01;99488.97;4901770;28;20143;-83
2023/06/13 11:27:00;;;;;;;6.38;4.40;;;;;;;23.77;30.81;99485.44;4892025;28;20055;-83
2023/06/13 11:29:33;;;;;;;7.53;3.88;;;;;;;23.80;31.43;99484.97;4929599;28;20098;-84
2023/06/13 11:32:04;;;;;;;5.85;3.70;;;;;;;23.77;30.99;99479.19;4874519;28;20052;-84
2023/06/13 11:34:33;;;;;;;4.82;3.97;;;;;;;23.81;30.91;99485.78;4926017;28;20048;-84
2023/06/13 11:37:05;;;;;;;5.57;4.07;;;;;;;23.74;30.07;99461.50;4888942;28;20055;-83
2023/06/13 11:39:39;;;;;;;6.65;4.28;;;;;;;23.74;30.42;99466.91;4911358;28;20043;-82
2023/06/13 11:42:10;;;;;;;4.60;3.95;;;;;;;23.72;30.50;99474.44;4874250;28;20079;-82
2023/06/13 11:44:43;;;;;;;6.30;4.45;;;;;;;23.63;29.92;99486.63;4890630;28;20056;-82
2023/06/13 11:47:11;;;;;;;6.13;4.28;;;;;;;23.71;29.98;99470.06;4881535;28;20056;-82
2023/06/13 11:49:39;;;;;;;7.80;4.60;;;;;;;23.64;29.98;99457.66;4898757;28;20510;-83
2023/06/13 11:52:14;;;;;;;6.40;4.03;;;;;;;23.73;30.88;99467.13;4887610;28;20064;-82
2023/06/13 11:54:47;;;;;;;5.88;4.18;;;;;;;23.81;31.01;99469.50;4889511;28;20055;-83
2023/06/13 11:57:14;;;;;;;5.75;3.92;;;;;;;23.81;29.81;99462.22;4949699;28;20602;-82
2023/06/13 11:59:41;;;;;;;5.90;3.78;;;;;;;23.90;30.45;99462.72;4903342;28;20044;-82
2023/06/13 12:02:09;;;;;;;5.97;4.22;;;;;;;23.94;29.74;99466.63;4916857;28;20110;-84
2023/06/13 12:04:41;;;;;;;7.07;3.30;;;;;;;23.93;30.12;99458.72;4914650;28;20480;-83